Terminal Aerodrome Forecast
Issued by NWS

Home | Current Version | Previous Version | Text Only | Print | Product List | Glossary On
Versions: 1 2 3 4 5 6 7 8 9 10 11 12 13 14 15 16 17 18 19 20 21 22
000
FTUS44 KLZK 300600 AAA
TAFHRO
TAF AMD
KHRO 300611Z 3006/3106 VRB05KT P6SM -RA BKN004 OVC050
     FM300900 31007KT P6SM VCSH SCT004 OVC040
      TEMPO 3009/3013 5SM -RA BR BKN004 OVC020
     FM301300 29008KT P6SM VCSH SCT010 OVC025
     FM301800 33010KT P6SM VCSH SCT020 BKN050 OVC250=

USA.gov is the U.S. government's official web portal to all federal, state and local government web resources and services.